sensor_id;sensor_type;location;lat;lon;timestamp;P1;durP1;ratioP1;P2;durP2;ratioP2
5981;SDS011;3018;48.730;9.336;2023-05-10T00:01:03;3.30;;;1.00;;
5981;SDS011;3018;48.730;9.336;2023-05-10T00:03:29;1.15;;;1.05;;
5981;SDS011;3018;48.730;9.336;2023-05-10T00:05:57;0.82;;;0.70;;
5981;SDS011;3018;48.730;9.336;2023-05-10T00:08:23;1.27;;;0.80;;
5981;SDS011;3018;48.730;9.336;2023-05-10T00:10:49;0.82;;;0.73;;
5981;SDS011;3018;48.730;9.336;2023-05-10T00:13:16;1.05;;;0.60;;
5981;SDS011;3018;48.730;9.336;2023-05-10T00:15:42;3.08;;;0.57;;
5981;SDS011;3018;48.730;9.336;2023-05-10T00:18:08;2.40;;;0.60;;
5981;SDS011;3018;48.730;9.336;2023-05-10T00:20:34;0.85;;;0.60;;
5981;SDS011;3018;48.730;9.336;2023-05-10T00:23:02;2.20;;;0.50;;
5981;SDS011;3018;48.730;9.336;2023-05-10T00:25:28;0.85;;;0.85;;
5981;SDS011;3018;48.730;9.336;2023-05-10T00:27:55;0.60;;;0.60;;
5981;SDS011;3018;48.730;9.336;2023-05-10T00:30:22;0.47;;;0.47;;
5981;SDS011;3018;48.730;9.336;2023-05-10T00:32:48;0.60;;;0.60;;
5981;SDS011;3018;48.730;9.336;2023-05-10T00:35:14;0.70;;;0.70;;
5981;SDS011;3018;48.730;9.336;2023-05-10T00:37:41;0.50;;;0.50;;
5981;SDS011;3018;48.730;9.336;2023-05-10T00:40:09;0.40;;;0.40;;
5981;SDS011;3018;48.730;9.336;2023-05-10T00:42:35;0.45;;;0.45;;
5981;SDS011;3018;48.730;9.336;2023-05-10T00:45:01;2.75;;;0.50;;
5981;SDS011;3018;48.730;9.336;2023-05-10T00:47:27;2.83;;;0.50;;
5981;SDS011;3018;48.730;9.336;2023-05-10T00:49:54;1.85;;;0.40;;
5981;SDS011;3018;48.730;9.336;2023-05-10T00:52:21;0.30;;;0.30;;
5981;SDS011;3018;48.730;9.336;2023-05-10T00:54:48;1.35;;;0.50;;
5981;SDS011;3018;48.730;9.336;2023-05-10T00:57:16;0.75;;;0.20;;
5981;SDS011;3018;48.730;9.336;2023-05-10T00:59:42;0.75;;;0.30;;
5981;SDS011;3018;48.730;9.336;2023-05-10T01:02:09;2.33;;;0.30;;
5981;SDS011;3018;48.730;9.336;2023-05-10T01:04:35;0.30;;;0.30;;
5981;SDS011;3018;48.730;9.336;2023-05-10T01:07:02;3.70;;;0.25;;
5981;SDS011;3018;48.730;9.336;2023-05-10T01:09:28;0.60;;;0.20;;
5981;SDS011;3018;48.730;9.336;2023-05-10T01:11:54;0.30;;;0.30;;
5981;SDS011;3018;48.730;9.336;2023-05-10T01:14:22;1.98;;;0.40;;
5981;SDS011;3018;48.730;9.336;2023-05-10T01:16:49;3.42;;;0.40;;
5981;SDS011;3018;48.730;9.336;2023-05-10T01:19:17;0.93;;;0.30;;
5981;SDS011;3018;48.730;9.336;2023-05-10T01:21:47;0.30;;;0.30;;
5981;SDS011;3018;48.730;9.336;2023-05-10T01:24:22;0.52;;;0.38;;
5981;SDS011;3018;48.730;9.336;2023-05-10T01:27:00;0.45;;;0.30;;
5981;SDS011;3018;48.730;9.336;2023-05-10T01:29:35;1.27;;;0.30;;
5981;SDS011;3018;48.730;9.336;2023-05-10T01:32:09;0.20;;;0.20;;
5981;SDS011;3018;48.730;9.336;2023-05-10T01:34:41;2.83;;;0.30;;
5981;SDS011;3018;48.730;9.336;2023-05-10T01:37:10;0.20;;;0.15;;
5981;SDS011;3018;48.730;9.336;2023-05-10T01:39:40;0.30;;;0.30;;
5981;SDS011;3018;48.730;9.336;2023-05-10T01:42:09;0.20;;;0.20;;
5981;SDS011;3018;48.730;9.336;2023-05-10T01:44:37;3.45;;;0.25;;
5981;SDS011;3018;48.730;9.336;2023-05-10T01:47:05;2.05;;;0.32;;
5981;SDS011;3018;48.730;9.336;2023-05-10T01:49:34;0.55;;;0.40;;
5981;SDS011;3018;48.730;9.336;2023-05-10T01:52:04;0.45;;;0.20;;
5981;SDS011;3018;48.730;9.336;2023-05-10T01:54:32;1.45;;;0.63;;
5981;SDS011;3018;48.730;9.336;2023-05-10T01:57:00;5.78;;;0.75;;
5981;SDS011;3018;48.730;9.336;2023-05-10T01:59:29;2.38;;;0.55;;
5981;SDS011;3018;48.730;9.336;2023-05-10T02:01:56;0.45;;;0.45;;
5981;SDS011;3018;48.730;9.336;2023-05-10T02:04:23;0.40;;;0.40;;
5981;SDS011;3018;48.730;9.336;2023-05-10T02:06:52;1.90;;;0.43;;
5981;SDS011;3018;48.730;9.336;2023-05-10T02:09:18;0.50;;;0.40;;
5981;SDS011;3018;48.730;9.336;2023-05-10T02:11:46;1.02;;;0.20;;
5981;SDS011;3018;48.730;9.336;2023-05-10T02:14:14;0.20;;;0.20;;
5981;SDS011;3018;48.730;9.336;2023-05-10T02:16:40;0.68;;;0.30;;
5981;SDS011;3018;48.730;9.336;2023-05-10T02:19:07;0.32;;;0.10;;
5981;SDS011;3018;48.730;9.336;2023-05-10T02:21:34;0.17;;;0.17;;
5981;SDS011;3018;48.730;9.336;2023-05-10T02:24:02;0.10;;;0.10;;
5981;SDS011;3018;48.730;9.336;2023-05-10T02:26:29;2.63;;;0.20;;
5981;SDS011;3018;48.730;9.336;2023-05-10T02:28:56;3.65;;;0.40;;
5981;SDS011;3018;48.730;9.336;2023-05-10T02:31:23;2.20;;;0.20;;
5981;SDS011;3018;48.730;9.336;2023-05-10T02:33:49;0.20;;;0.20;;
5981;SDS011;3018;48.730;9.336;2023-05-10T02:36:17;1.45;;;0.30;;
5981;SDS011;3018;48.730;9.336;2023-05-10T02:38:43;3.40;;;0.20;;
5981;SDS011;3018;48.730;9.336;2023-05-10T02:41:11;1.88;;;0.20;;
5981;SDS011;3018;48.730;9.336;2023-05-10T02:43:38;0.68;;;0.20;;
5981;SDS011;3018;48.730;9.336;2023-05-10T02:46:06;1.55;;;0.20;;
5981;SDS011;3018;48.730;9.336;2023-05-10T02:48:32;1.75;;;0.15;;
5981;SDS011;3018;48.730;9.336;2023-05-10T02:51:00;3.03;;;0.30;;
5981;SDS011;3018;48.730;9.336;2023-05-10T02:53:30;0.85;;;0.30;;
5981;SDS011;3018;48.730;9.336;2023-05-10T02:55:57;1.65;;;0.20;;
5981;SDS011;3018;48.730;9.336;2023-05-10T02:58:26;1.90;;;0.30;;
5981;SDS011;3018;48.730;9.336;2023-05-10T03:00:52;1.35;;;0.20;;
5981;SDS011;3018;48.730;9.336;2023-05-10T03:03:19;0.20;;;0.20;;
5981;SDS011;3018;48.730;9.336;2023-05-10T03:05:46;3.40;;;0.32;;
5981;SDS011;3018;48.730;9.336;2023-05-10T03:08:12;2.00;;;0.30;;
5981;SDS011;3018;48.730;9.336;2023-05-10T03:10:41;1.33;;;0.10;;
5981;SDS011;3018;48.730;9.336;2023-05-10T03:13:12;3.40;;;0.30;;
5981;SDS011;3018;48.730;9.336;2023-05-10T03:15:45;0.25;;;0.25;;
5981;SDS011;3018;48.730;9.336;2023-05-10T03:18:15;3.08;;;0.60;;
5981;SDS011;3018;48.730;9.336;2023-05-10T03:20:43;2.75;;;0.47;;
5981;SDS011;3018;48.730;9.336;2023-05-10T03:23:12;0.50;;;0.45;;
5981;SDS011;3018;48.730;9.336;2023-05-10T03:25:39;0.40;;;0.40;;
5981;SDS011;3018;48.730;9.336;2023-05-10T03:28:06;1.75;;;0.60;;
5981;SDS011;3018;48.730;9.336;2023-05-10T03:30:32;5.00;;;0.50;;
5981;SDS011;3018;48.730;9.336;2023-05-10T03:33:05;0.77;;;0.35;;
5981;SDS011;3018;48.730;9.336;2023-05-10T03:35:31;0.40;;;0.40;;
5981;SDS011;3018;48.730;9.336;2023-05-10T03:37:58;1.70;;;0.90;;
5981;SDS011;3018;48.730;9.336;2023-05-10T03:40:24;1.58;;;1.02;;
5981;SDS011;3018;48.730;9.336;2023-05-10T03:42:50;3.75;;;0.70;;
5981;SDS011;3018;48.730;9.336;2023-05-10T03:45:17;0.75;;;0.52;;
5981;SDS011;3018;48.730;9.336;2023-05-10T03:47:43;0.50;;;0.50;;
5981;SDS011;3018;48.730;9.336;2023-05-10T03:50:10;7.13;;;0.60;;
5981;SDS011;3018;48.730;9.336;2023-05-10T03:52:37;0.50;;;0.50;;
5981;SDS011;3018;48.730;9.336;2023-05-10T03:55:04;0.60;;;0.60;;
5981;SDS011;3018;48.730;9.336;2023-05-10T03:57:30;0.88;;;0.55;;
5981;SDS011;3018;48.730;9.336;2023-05-10T03:59:57;1.15;;;0.50;;
5981;SDS011;3018;48.730;9.336;2023-05-10T04:02:23;0.40;;;0.40;;
5981;SDS011;3018;48.730;9.336;2023-05-10T04:04:49;0.50;;;0.50;;
5981;SDS011;3018;48.730;9.336;2023-05-10T04:07:17;0.95;;;0.40;;
5981;SDS011;3018;48.730;9.336;2023-05-10T04:09:43;0.35;;;0.30;;
5981;SDS011;3018;48.730;9.336;2023-05-10T04:12:10;1.75;;;0.38;;
5981;SDS011;3018;48.730;9.336;2023-05-10T04:14:36;2.75;;;0.43;;
5981;SDS011;3018;48.730;9.336;2023-05-10T04:17:02;1.25;;;0.50;;
5981;SDS011;3018;48.730;9.336;2023-05-10T04:19:29;0.50;;;0.50;;
5981;SDS011;3018;48.730;9.336;2023-05-10T04:21:55;0.73;;;0.50;;
5981;SDS011;3018;48.730;9.336;2023-05-10T04:24:23;1.77;;;0.50;;
5981;SDS011;3018;48.730;9.336;2023-05-10T04:26:49;0.50;;;0.50;;
5981;SDS011;3018;48.730;9.336;2023-05-10T04:29:15;2.03;;;0.52;;
5981;SDS011;3018;48.730;9.336;2023-05-10T04:31:41;0.50;;;0.50;;
5981;SDS011;3018;48.730;9.336;2023-05-10T04:34:08;0.60;;;0.60;;
5981;SDS011;3018;48.730;9.336;2023-05-10T04:36:34;0.50;;;0.50;;
5981;SDS011;3018;48.730;9.336;2023-05-10T04:39:01;2.72;;;0.63;;
5981;SDS011;3018;48.730;9.336;2023-05-10T04:41:30;0.80;;;0.80;;
5981;SDS011;3018;48.730;9.336;2023-05-10T04:43:56;1.95;;;0.95;;
5981;SDS011;3018;48.730;9.336;2023-05-10T04:46:22;0.80;;;0.60;;
5981;SDS011;3018;48.730;9.336;2023-05-10T04:48:48;0.40;;;0.40;;
5981;SDS011;3018;48.730;9.336;2023-05-10T04:51:15;3.67;;;0.55;;
5981;SDS011;3018;48.730;9.336;2023-05-10T04:53:41;0.90;;;0.90;;
5981;SDS011;3018;48.730;9.336;2023-05-10T04:56:07;1.58;;;0.70;;
5981;SDS011;3018;48.730;9.336;2023-05-10T04:58:35;2.08;;;0.70;;
5981;SDS011;3018;48.730;9.336;2023-05-10T05:01:04;0.60;;;0.60;;
5981;SDS011;3018;48.730;9.336;2023-05-10T05:03:31;1.17;;;0.63;;
5981;SDS011;3018;48.730;9.336;2023-05-10T05:05:57;3.40;;;0.80;;
5981;SDS011;3018;48.730;9.336;2023-05-10T05:08:23;2.00;;;0.80;;
5981;SDS011;3018;48.730;9.336;2023-05-10T05:10:50;1.13;;;0.60;;
5981;SDS011;3018;48.730;9.336;2023-05-10T05:13:16;0.93;;;0.77;;
5981;SDS011;3018;48.730;9.336;2023-05-10T05:15:44;0.60;;;0.60;;
5981;SDS011;3018;48.730;9.336;2023-05-10T05:18:10;2.08;;;0.90;;
5981;SDS011;3018;48.730;9.336;2023-05-10T05:20:36;1.83;;;0.60;;
5981;SDS011;3018;48.730;9.336;2023-05-10T05:23:03;2.15;;;0.60;;
5981;SDS011;3018;48.730;9.336;2023-05-10T05:25:29;0.60;;;0.60;;
5981;SDS011;3018;48.730;9.336;2023-05-10T05:27:55;1.00;;;0.77;;
5981;SDS011;3018;48.730;9.336;2023-05-10T05:30:21;0.70;;;0.70;;
5981;SDS011;3018;48.730;9.336;2023-05-10T05:32:49;0.85;;;0.85;;
5981;SDS011;3018;48.730;9.336;2023-05-10T05:35:15;1.83;;;0.63;;
5981;SDS011;3018;48.730;9.336;2023-05-10T05:37:41;0.80;;;0.80;;
5981;SDS011;3018;48.730;9.336;2023-05-10T05:40:08;1.55;;;0.90;;
5981;SDS011;3018;48.730;9.336;2023-05-10T05:42:34;1.20;;;0.80;;
5981;SDS011;3018;48.730;9.336;2023-05-10T05:45:00;1.23;;;0.63;;
5981;SDS011;3018;48.730;9.336;2023-05-10T05:47:26;1.15;;;0.70;;
5981;SDS011;3018;48.730;9.336;2023-05-10T05:49:54;1.85;;;0.70;;
5981;SDS011;3018;48.730;9.336;2023-05-10T05:52:20;0.73;;;0.73;;
5981;SDS011;3018;48.730;9.336;2023-05-10T05:54:47;0.85;;;0.85;;
5981;SDS011;3018;48.730;9.336;2023-05-10T05:57:13;1.02;;;0.70;;
5981;SDS011;3018;48.730;9.336;2023-05-10T05:59:39;1.27;;;0.60;;
5981;SDS011;3018;48.730;9.336;2023-05-10T06:02:08;1.20;;;0.60;;
5981;SDS011;3018;48.730;9.336;2023-05-10T06:04:35;2.78;;;0.55;;
5981;SDS011;3018;48.730;9.336;2023-05-10T06:07:02;1.67;;;0.55;;
5981;SDS011;3018;48.730;9.336;2023-05-10T06:09:28;1.10;;;0.70;;
5981;SDS011;3018;48.730;9.336;2023-05-10T06:11:55;1.17;;;0.70;;
5981;SDS011;3018;48.730;9.336;2023-05-10T06:14:21;0.80;;;0.80;;
5981;SDS011;3018;48.730;9.336;2023-05-10T06:16:47;0.63;;;0.50;;
5981;SDS011;3018;48.730;9.336;2023-05-10T06:19:14;0.43;;;0.43;;
5981;SDS011;3018;48.730;9.336;2023-05-10T06:21:40;0.52;;;0.52;;
5981;SDS011;3018;48.730;9.336;2023-05-10T06:24:08;0.60;;;0.60;;
5981;SDS011;3018;48.730;9.336;2023-05-10T06:26:35;6.25;;;0.80;;
5981;SDS011;3018;48.730;9.336;2023-05-10T06:29:01;3.22;;;0.60;;
5981;SDS011;3018;48.730;9.336;2023-05-10T06:31:27;0.43;;;0.43;;
5981;SDS011;3018;48.730;9.336;2023-05-10T06:33:53;1.55;;;0.52;;
5981;SDS011;3018;48.730;9.336;2023-05-10T06:36:20;0.45;;;0.45;;
5981;SDS011;3018;48.730;9.336;2023-05-10T06:38:46;0.50;;;0.50;;
5981;SDS011;3018;48.730;9.336;2023-05-10T06:41:14;2.83;;;0.57;;
5981;SDS011;3018;48.730;9.336;2023-05-10T06:43:41;0.55;;;0.55;;
5981;SDS011;3018;48.730;9.336;2023-05-10T06:46:08;0.75;;;0.60;;
5981;SDS011;3018;48.730;9.336;2023-05-10T06:48:34;0.73;;;0.70;;
5981;SDS011;3018;48.730;9.336;2023-05-10T06:51:00;0.60;;;0.60;;
5981;SDS011;3018;48.730;9.336;2023-05-10T06:53:27;0.63;;;0.63;;
5981;SDS011;3018;48.730;9.336;2023-05-10T06:55:53;1.75;;;0.60;;
5981;SDS011;3018;48.730;9.336;2023-05-10T06:58:20;2.60;;;0.70;;
5981;SDS011;3018;48.730;9.336;2023-05-10T07:00:47;0.95;;;0.50;;
5981;SDS011;3018;48.730;9.336;2023-05-10T07:03:14;1.00;;;0.60;;
5981;SDS011;3018;48.730;9.336;2023-05-10T07:05:40;1.65;;;0.50;;
5981;SDS011;3018;48.730;9.336;2023-05-10T07:08:06;1.40;;;0.55;;
5981;SDS011;3018;48.730;9.336;2023-05-10T07:10:33;0.50;;;0.50;;
5981;SDS011;3018;48.730;9.336;2023-05-10T07:12:59;5.13;;;0.85;;
5981;SDS011;3018;48.730;9.336;2023-05-10T07:15:27;0.40;;;0.40;;
5981;SDS011;3018;48.730;9.336;2023-05-10T07:17:54;1.35;;;0.43;;
5981;SDS011;3018;48.730;9.336;2023-05-10T07:20:20;0.88;;;0.45;;
5981;SDS011;3018;48.730;9.336;2023-05-10T07:22:46;0.75;;;0.75;;
5981;SDS011;3018;48.730;9.336;2023-05-10T07:25:13;0.68;;;0.68;;
5981;SDS011;3018;48.730;9.336;2023-05-10T07:27:39;0.63;;;0.63;;
5981;SDS011;3018;48.730;9.336;2023-05-10T07:30:05;0.70;;;0.70;;
5981;SDS011;3018;48.730;9.336;2023-05-10T07:32:33;0.90;;;0.90;;
5981;SDS011;3018;48.730;9.336;2023-05-10T07:34:59;0.88;;;0.60;;
5981;SDS011;3018;48.730;9.336;2023-05-10T07:37:26;1.50;;;0.60;;
5981;SDS011;3018;48.730;9.336;2023-05-10T07:39:52;1.17;;;0.85;;
5981;SDS011;3018;48.730;9.336;2023-05-10T07:42:18;0.50;;;0.50;;
5981;SDS011;3018;48.730;9.336;2023-05-10T07:44:44;1.85;;;0.93;;
5981;SDS011;3018;48.730;9.336;2023-05-10T07:47:11;1.75;;;0.63;;
5981;SDS011;3018;48.730;9.336;2023-05-10T07:49:38;1.42;;;0.68;;
5981;SDS011;3018;48.730;9.336;2023-05-10T07:52:04;0.73;;;0.70;;
5981;SDS011;3018;48.730;9.336;2023-05-10T07:54:31;0.70;;;0.70;;
5981;SDS011;3018;48.730;9.336;2023-05-10T07:56:59;3.05;;;0.60;;
5981;SDS011;3018;48.730;9.336;2023-05-10T07:59:25;0.70;;;0.70;;
5981;SDS011;3018;48.730;9.336;2023-05-10T08:01:51;1.33;;;0.80;;
5981;SDS011;3018;48.730;9.336;2023-05-10T08:04:17;1.13;;;0.93;;
5981;SDS011;3018;48.730;9.336;2023-05-10T08:06:45;2.17;;;0.70;;
5981;SDS011;3018;48.730;9.336;2023-05-10T08:09:11;2.40;;;0.75;;
5981;SDS011;3018;48.730;9.336;2023-05-10T08:11:37;0.90;;;0.90;;
5981;SDS011;3018;48.730;9.336;2023-05-10T08:14:04;0.95;;;0.70;;
5981;SDS011;3018;48.730;9.336;2023-05-10T08:16:30;0.80;;;0.80;;
5981;SDS011;3018;48.730;9.336;2023-05-10T08:18:57;1.92;;;0.60;;
5981;SDS011;3018;48.730;9.336;2023-05-10T08:21:23;1.40;;;0.70;;
5981;SDS011;3018;48.730;9.336;2023-05-10T08:23:51;3.95;;;0.73;;
5981;SDS011;3018;48.730;9.336;2023-05-10T08:26:17;0.40;;;0.40;;
5981;SDS011;3018;48.730;9.336;2023-05-10T08:28:43;2.42;;;0.60;;
5981;SDS011;3018;48.730;9.336;2023-05-10T08:31:09;0.50;;;0.50;;
5981;SDS011;3018;48.730;9.336;2023-05-10T08:33:36;0.65;;;0.65;;
5981;SDS011;3018;48.730;9.336;2023-05-10T08:36:02;1.33;;;0.50;;
5981;SDS011;3018;48.730;9.336;2023-05-10T08:38:28;1.63;;;0.63;;
5981;SDS011;3018;48.730;9.336;2023-05-10T08:40:56;1.08;;;0.80;;
5981;SDS011;3018;48.730;9.336;2023-05-10T08:43:23;0.55;;;0.40;;
5981;SDS011;3018;48.730;9.336;2023-05-10T08:45:52;2.72;;;0.60;;
5981;SDS011;3018;48.730;9.336;2023-05-10T08:48:19;0.50;;;0.50;;
5981;SDS011;3018;48.730;9.336;2023-05-10T08:50:45;1.20;;;0.60;;
5981;SDS011;3018;48.730;9.336;2023-05-10T08:53:13;0.50;;;0.50;;
5981;SDS011;3018;48.730;9.336;2023-05-10T08:55:41;1.80;;;0.60;;
5981;SDS011;3018;48.730;9.336;2023-05-10T08:58:09;0.57;;;0.57;;
5981;SDS011;3018;48.730;9.336;2023-05-10T09:00:35;0.60;;;0.60;;
5981;SDS011;3018;48.730;9.336;2023-05-10T09:03:03;0.95;;;0.40;;
5981;SDS011;3018;48.730;9.336;2023-05-10T09:05:29;1.48;;;0.50;;
5981;SDS011;3018;48.730;9.336;2023-05-10T09:07:55;1.60;;;0.68;;
5981;SDS011;3018;48.730;9.336;2023-05-10T09:10:22;0.85;;;0.50;;
5981;SDS011;3018;48.730;9.336;2023-05-10T09:12:51;0.50;;;0.50;;
5981;SDS011;3018;48.730;9.336;2023-05-10T09:15:19;0.63;;;0.50;;
5981;SDS011;3018;48.730;9.336;2023-05-10T09:17:45;0.80;;;0.47;;
5981;SDS011;3018;48.730;9.336;2023-05-10T09:20:11;0.32;;;0.32;;
5981;SDS011;3018;48.730;9.336;2023-05-10T09:22:38;0.50;;;0.43;;
5981;SDS011;3018;48.730;9.336;2023-05-10T09:25:05;0.93;;;0.60;;
5981;SDS011;3018;48.730;9.336;2023-05-10T09:27:32;0.50;;;0.50;;
5981;SDS011;3018;48.730;9.336;2023-05-10T09:29:58;0.93;;;0.40;;
5981;SDS011;3018;48.730;9.336;2023-05-10T09:32:36;1.02;;;0.43;;
5981;SDS011;3018;48.730;9.336;2023-05-10T09:35:06;1.05;;;0.50;;
5981;SDS011;3018;48.730;9.336;2023-05-10T09:37:32;1.63;;;0.50;;
5981;SDS011;3018;48.730;9.336;2023-05-10T09:39:58;0.77;;;0.77;;
5981;SDS011;3018;48.730;9.336;2023-05-10T09:42:25;0.70;;;0.50;;
5981;SDS011;3018;48.730;9.336;2023-05-10T09:44:51;1.55;;;0.50;;
5981;SDS011;3018;48.730;9.336;2023-05-10T09:47:17;0.50;;;0.50;;
5981;SDS011;3018;48.730;9.336;2023-05-10T09:49:45;0.50;;;0.50;;
5981;SDS011;3018;48.730;9.336;2023-05-10T09:52:14;0.45;;;0.45;;
5981;SDS011;3018;48.730;9.336;2023-05-10T09:54:42;1.15;;;0.60;;
5981;SDS011;3018;48.730;9.336;2023-05-10T09:57:18;3.03;;;0.80;;
5981;SDS011;3018;48.730;9.336;2023-05-10T09:59:45;0.52;;;0.52;;
5981;SDS011;3018;48.730;9.336;2023-05-10T10:02:12;0.68;;;0.68;;
5981;SDS011;3018;48.730;9.336;2023-05-10T10:04:39;0.93;;;0.57;;
5981;SDS011;3018;48.730;9.336;2023-05-10T10:07:07;1.90;;;0.60;;
5981;SDS011;3018;48.730;9.336;2023-05-10T10:09:34;1.85;;;0.40;;
5981;SDS011;3018;48.730;9.336;2023-05-10T10:12:00;0.70;;;0.70;;
5981;SDS011;3018;48.730;9.336;2023-05-10T10:14:27;2.50;;;0.60;;
5981;SDS011;3018;48.730;9.336;2023-05-10T10:16:53;0.50;;;0.50;;
5981;SDS011;3018;48.730;9.336;2023-05-10T10:19:20;0.93;;;0.77;;
5981;SDS011;3018;48.730;9.336;2023-05-10T10:21:47;1.27;;;0.82;;
5981;SDS011;3018;48.730;9.336;2023-05-10T10:24:14;0.73;;;0.60;;
5981;SDS011;3018;48.730;9.336;2023-05-10T10:26:41;0.60;;;0.60;;
5981;SDS011;3018;48.730;9.336;2023-05-10T10:29:10;0.70;;;0.70;;
5981;SDS011;3018;48.730;9.336;2023-05-10T10:31:40;1.27;;;0.52;;
5981;SDS011;3018;48.730;9.336;2023-05-10T10:34:16;0.65;;;0.65;;
5981;SDS011;3018;48.730;9.336;2023-05-10T10:36:43;2.58;;;0.63;;
5981;SDS011;3018;48.730;9.336;2023-05-10T10:39:10;1.05;;;0.70;;
5981;SDS011;3018;48.730;9.336;2023-05-10T10:41:39;1.98;;;0.73;;
5981;SDS011;3018;48.730;9.336;2023-05-10T10:47:07;0.70;;;0.57;;
5981;SDS011;3018;48.730;9.336;2023-05-10T10:49:38;1.40;;;0.45;;
5981;SDS011;3018;48.730;9.336;2023-05-10T10:52:14;0.63;;;0.50;;
5981;SDS011;3018;48.730;9.336;2023-05-10T10:54:41;0.45;;;0.45;;
5981;SDS011;3018;48.730;9.336;2023-05-10T10:57:12;1.85;;;0.47;;
5981;SDS011;3018;48.730;9.336;2023-05-10T10:59:41;0.85;;;0.55;;
5981;SDS011;3018;48.730;9.336;2023-05-10T11:02:07;0.52;;;0.50;;
5981;SDS011;3018;48.730;9.336;2023-05-10T11:04:41;0.30;;;0.30;;
5981;SDS011;3018;48.730;9.336;2023-05-10T11:07:17;1.73;;;0.38;;
5981;SDS011;3018;48.730;9.336;2023-05-10T11:09:43;1.45;;;0.30;;
5981;SDS011;3018;48.730;9.336;2023-05-10T11:12:10;0.65;;;0.40;;
5981;SDS011;3018;48.730;9.336;2023-05-10T11:14:37;0.50;;;0.50;;
5981;SDS011;3018;48.730;9.336;2023-05-10T11:22:26;0.85;;;0.60;;
5981;SDS011;3018;48.730;9.336;2023-05-10T11:24:56;0.43;;;0.40;;
5981;SDS011;3018;48.730;9.336;2023-05-10T11:27:23;0.93;;;0.30;;
5981;SDS011;3018;48.730;9.336;2023-05-10T11:29:52;3.35;;;0.47;;
5981;SDS011;3018;48.730;9.336;2023-05-10T11:32:19;0.50;;;0.50;;
5981;SDS011;3018;48.730;9.336;2023-05-10T11:34:46;0.82;;;0.40;;
5981;SDS011;3018;48.730;9.336;2023-05-10T11:37:13;1.55;;;0.50;;
5981;SDS011;3018;48.730;9.336;2023-05-10T11:39:45;1.80;;;0.50;;
5981;SDS011;3018;48.730;9.336;2023-05-10T11:42:11;2.30;;;0.60;;
5981;SDS011;3018;48.730;9.336;2023-05-10T11:44:38;3.42;;;0.70;;
5981;SDS011;3018;48.730;9.336;2023-05-10T11:47:05;1.85;;;0.57;;
5981;SDS011;3018;48.730;9.336;2023-05-10T11:49:32;1.48;;;0.45;;
5981;SDS011;3018;48.730;9.336;2023-05-10T11:52:05;2.58;;;0.50;;
5981;SDS011;3018;48.730;9.336;2023-05-10T11:54:32;0.73;;;0.52;;
5981;SDS011;3018;48.730;9.336;2023-05-10T11:56:59;1.75;;;0.40;;
5981;SDS011;3018;48.730;9.336;2023-05-10T11:59:26;0.50;;;0.50;;
5981;SDS011;3018;48.730;9.336;2023-05-10T12:01:52;2.17;;;0.50;;
5981;SDS011;3018;48.730;9.336;2023-05-10T12:04:19;3.03;;;0.90;;
5981;SDS011;3018;48.730;9.336;2023-05-10T12:06:46;1.27;;;0.60;;
5981;SDS011;3018;48.730;9.336;2023-05-10T12:09:12;0.60;;;0.40;;
5981;SDS011;3018;48.730;9.336;2023-05-10T12:11:39;1.80;;;0.90;;
5981;SDS011;3018;48.730;9.336;2023-05-10T12:14:07;2.17;;;0.90;;
5981;SDS011;3018;48.730;9.336;2023-05-10T12:16:34;2.42;;;0.63;;
5981;SDS011;3018;48.730;9.336;2023-05-10T12:19:00;1.45;;;0.80;;
5981;SDS011;3018;48.730;9.336;2023-05-10T12:21:28;1.30;;;0.77;;
5981;SDS011;3018;48.730;9.336;2023-05-10T12:23:58;1.85;;;0.60;;
5981;SDS011;3018;48.730;9.336;2023-05-10T12:26:25;3.67;;;0.50;;
5981;SDS011;3018;48.730;9.336;2023-05-10T12:28:52;1.70;;;0.52;;
5981;SDS011;3018;48.730;9.336;2023-05-10T12:31:18;0.60;;;0.60;;
5981;SDS011;3018;48.730;9.336;2023-05-10T12:33:45;1.95;;;0.70;;
5981;SDS011;3018;48.730;9.336;2023-05-10T12:36:12;0.95;;;0.70;;
5981;SDS011;3018;48.730;9.336;2023-05-10T12:38:41;1.48;;;0.55;;
5981;SDS011;3018;48.730;9.336;2023-05-10T12:41:08;1.15;;;0.50;;
5981;SDS011;3018;48.730;9.336;2023-05-10T12:43:35;1.02;;;0.88;;
5981;SDS011;3018;48.730;9.336;2023-05-10T12:46:05;1.00;;;0.47;;
5981;SDS011;3018;48.730;9.336;2023-05-10T12:48:31;1.23;;;0.47;;
5981;SDS011;3018;48.730;9.336;2023-05-10T12:50:58;0.57;;;0.50;;
5981;SDS011;3018;48.730;9.336;2023-05-10T12:53:25;0.95;;;0.70;;
5981;SDS011;3018;48.730;9.336;2023-05-10T12:55:52;2.40;;;0.68;;
5981;SDS011;3018;48.730;9.336;2023-05-10T12:58:19;0.60;;;0.60;;
5981;SDS011;3018;48.730;9.336;2023-05-10T13:00:45;5.03;;;1.00;;
5981;SDS011;3018;48.730;9.336;2023-05-10T13:03:12;2.85;;;0.82;;
5981;SDS011;3018;48.730;9.336;2023-05-10T13:05:38;1.38;;;0.70;;
5981;SDS011;3018;48.730;9.336;2023-05-10T13:08:04;5.63;;;0.80;;
5981;SDS011;3018;48.730;9.336;2023-05-10T13:10:31;2.25;;;0.90;;
5981;SDS011;3018;48.730;9.336;2023-05-10T13:12:59;1.80;;;0.80;;
5981;SDS011;3018;48.730;9.336;2023-05-10T13:15:25;1.98;;;0.93;;
5981;SDS011;3018;48.730;9.336;2023-05-10T13:17:51;4.85;;;1.08;;
5981;SDS011;3018;48.730;9.336;2023-05-10T13:20:17;0.73;;;0.73;;
5981;SDS011;3018;48.730;9.336;2023-05-10T13:22:44;3.95;;;1.30;;
5981;SDS011;3018;48.730;9.336;2023-05-10T13:25:10;1.10;;;1.10;;
5981;SDS011;3018;48.730;9.336;2023-05-10T13:27:37;1.40;;;1.20;;
5981;SDS011;3018;48.730;9.336;2023-05-10T13:30:05;3.25;;;1.35;;
5981;SDS011;3018;48.730;9.336;2023-05-10T13:32:31;1.00;;;1.00;;
5981;SDS011;3018;48.730;9.336;2023-05-10T13:34:58;4.35;;;0.93;;
5981;SDS011;3018;48.730;9.336;2023-05-10T13:37:24;1.33;;;1.23;;
5981;SDS011;3018;48.730;9.336;2023-05-10T13:39:51;3.85;;;1.60;;
5981;SDS011;3018;48.730;9.336;2023-05-10T13:42:17;3.63;;;1.30;;
5981;SDS011;3018;48.730;9.336;2023-05-10T13:44:43;1.25;;;1.17;;
5981;SDS011;3018;48.730;9.336;2023-05-10T13:47:11;3.38;;;0.98;;
5981;SDS011;3018;48.730;9.336;2023-05-10T13:49:37;6.85;;;1.20;;
5981;SDS011;3018;48.730;9.336;2023-05-10T13:52:03;1.95;;;0.80;;
5981;SDS011;3018;48.730;9.336;2023-05-10T13:54:31;3.40;;;1.15;;
5981;SDS011;3018;48.730;9.336;2023-05-10T13:56:58;1.05;;;0.80;;
5981;SDS011;3018;48.730;9.336;2023-05-10T13:59:24;0.80;;;0.80;;
5981;SDS011;3018;48.730;9.336;2023-05-10T14:01:50;2.97;;;1.00;;
5981;SDS011;3018;48.730;9.336;2023-05-10T14:04:18;3.28;;;1.05;;
5981;SDS011;3018;48.730;9.336;2023-05-10T14:06:44;5.28;;;1.30;;
5981;SDS011;3018;48.730;9.336;2023-05-10T14:09:10;1.38;;;1.23;;
5981;SDS011;3018;48.730;9.336;2023-05-10T14:11:37;1.88;;;0.85;;
5981;SDS011;3018;48.730;9.336;2023-05-10T14:14:06;3.90;;;1.35;;
5981;SDS011;3018;48.730;9.336;2023-05-10T14:16:32;3.30;;;0.85;;
5981;SDS011;3018;48.730;9.336;2023-05-10T14:18:59;1.80;;;1.15;;
5981;SDS011;3018;48.730;9.336;2023-05-10T14:21:26;1.90;;;1.08;;
5981;SDS011;3018;48.730;9.336;2023-05-10T14:23:53;2.63;;;1.10;;
5981;SDS011;3018;48.730;9.336;2023-05-10T14:26:20;5.85;;;1.20;;
5981;SDS011;3018;48.730;9.336;2023-05-10T14:28:46;5.00;;;1.20;;
5981;SDS011;3018;48.730;9.336;2023-05-10T14:31:13;4.78;;;1.25;;
5981;SDS011;3018;48.730;9.336;2023-05-10T14:33:41;3.90;;;1.00;;
5981;SDS011;3018;48.730;9.336;2023-05-10T14:36:08;5.80;;;1.02;;
5981;SDS011;3018;48.730;9.336;2023-05-10T14:38:35;1.80;;;1.20;;
5981;SDS011;3018;48.730;9.336;2023-05-10T14:41:02;4.50;;;1.15;;
5981;SDS011;3018;48.730;9.336;2023-05-10T14:43:28;2.10;;;0.90;;
5981;SDS011;3018;48.730;9.336;2023-05-10T14:45:55;4.55;;;1.15;;
5981;SDS011;3018;48.730;9.336;2023-05-10T14:48:21;3.97;;;0.82;;
5981;SDS011;3018;48.730;9.336;2023-05-10T14:50:47;2.33;;;0.98;;
5981;SDS011;3018;48.730;9.336;2023-05-10T14:53:14;2.08;;;0.95;;
5981;SDS011;3018;48.730;9.336;2023-05-10T14:55:42;3.22;;;1.30;;
5981;SDS011;3018;48.730;9.336;2023-05-10T14:58:08;4.03;;;1.30;;
5981;SDS011;3018;48.730;9.336;2023-05-10T15:00:34;1.35;;;0.95;;
5981;SDS011;3018;48.730;9.336;2023-05-10T15:03:00;1.02;;;0.93;;
5981;SDS011;3018;48.730;9.336;2023-05-10T15:05:27;1.80;;;1.02;;
5981;SDS011;3018;48.730;9.336;2023-05-10T15:07:53;1.90;;;1.02;;
5981;SDS011;3018;48.730;9.336;2023-05-10T15:10:19;2.20;;;1.13;;
5981;SDS011;3018;48.730;9.336;2023-05-10T15:12:47;1.80;;;1.02;;
5981;SDS011;3018;48.730;9.336;2023-05-10T15:15:13;2.60;;;0.90;;
5981;SDS011;3018;48.730;9.336;2023-05-10T15:17:39;1.10;;;1.00;;
5981;SDS011;3018;48.730;9.336;2023-05-10T15:20:06;1.42;;;1.00;;
5981;SDS011;3018;48.730;9.336;2023-05-10T15:22:33;2.17;;;0.93;;